.
WxDataArchive / Data Records for 2013-02-26
2013-02-25 February 2013 2013-02-27

Data Records for Tuesday, 26 February 2013

Time	Temp	Chill	HIndex	Humid	Dewpt	 Wind 	HiWind	WindDir	Rain 	Barom 
-----	----	-----	------	-----	-----	------	------	-------	-----	----- 
00:00	30.0	30.0	30.0	75	23.1	2	5	112	0.00	30.032 
00:05	30.0	25.8	30.0	75	23.1	4	9	90	0.00	30.032 
00:10	29.8	29.8	29.8	75	22.9	2	10	90	0.00	30.032 
00:15	29.8	29.8	29.8	76	23.2	2	9	90	0.00	30.021 
00:20	29.7	29.7	29.7	76	23.1	1	6	90	0.00	30.021 
00:25	29.5	29.5	29.5	77	23.2	2	8	112	0.00	30.021 
00:30	29.4	29.4	29.4	77	23.1	1	3	112	0.00	30.010 
00:35	29.3	29.3	29.3	78	23.3	2	9	90	0.00	30.010 
00:40	29.3	29.3	29.3	78	23.3	2	7	90	0.00	30.010 
00:45	29.4	25.1	29.4	78	23.4	4	11	112	0.00	30.003 
00:50	29.4	25.1	29.4	78	23.4	4	9	90	0.00	30.003 
00:55	29.4	29.4	29.4	78	23.4	2	8	90	0.00	30.003 
01:00	29.4	29.4	29.4	79	23.7	2	9	112	0.00	29.995 
01:05	29.5	25.2	29.5	78	23.5	4	14	90	0.00	29.995 
01:10	29.5	29.5	29.5	78	23.5	3	5	112	0.00	29.995 
01:15	29.5	29.5	29.5	78	23.5	2	6	68	0.00	29.989 
01:20	29.5	29.5	29.5	79	23.8	2	8	90	0.00	29.989 
01:25	29.5	29.5	29.5	79	23.8	2	6	90	0.00	29.989 
01:30	29.7	25.4	29.7	79	24.0	4	10	90	0.00	29.986 
01:35	29.7	29.7	29.7	79	24.0	3	9	112	0.00	29.986 
01:40	29.8	29.8	29.8	79	24.1	2	13	112	0.00	29.986 
01:45	29.8	29.8	29.8	79	24.1	3	10	90	0.00	29.991 
01:50	29.8	29.8	29.8	79	24.1	3	7	112	0.00	29.991 
01:55	29.8	29.8	29.8	79	24.1	2	9	90	0.00	29.991 
02:00	29.8	25.5	29.8	79	24.1	4	11	90	0.00	29.989 
02:05	29.8	29.8	29.8	79	24.1	3	8	90	0.00	29.989 
02:10	29.8	25.5	29.8	79	24.1	4	12	90	0.00	29.989 
02:15	29.8	24.5	29.8	79	24.1	5	12	90	0.00	29.978 
02:20	29.8	29.8	29.8	79	24.1	3	12	90	0.00	29.978 
02:25	29.8	29.8	29.8	79	24.1	3	10	90	0.00	29.978 
02:30	29.7	25.4	29.7	79	24.0	4	12	90	0.00	29.969 
02:35	29.8	29.8	29.8	79	24.1	3	10	90	0.00	29.969 
02:40	29.7	29.7	29.7	79	24.0	3	8	112	0.00	29.969 
02:45	29.7	29.7	29.7	79	24.0	3	9	90	0.00	29.963 
02:50	29.7	29.7	29.7	79	24.0	3	10	112	0.00	29.963 
02:55	29.8	29.8	29.8	79	24.1	3	10	112	0.00	29.963 
03:00	29.8	29.8	29.8	79	24.1	3	10	112	0.00	29.955 
03:05	29.8	25.5	29.8	79	24.1	4	12	90	0.00	29.955 
03:10	29.8	29.8	29.8	78	23.8	3	12	90	0.00	29.955 
03:15	29.8	25.5	29.8	78	23.8	4	11	90	0.00	29.930 
03:20	29.8	25.5	29.8	78	23.8	4	12	112	0.00	29.930 
03:25	29.8	25.5	29.8	78	23.8	4	14	90	0.00	29.930 
03:30	29.8	29.8	29.8	78	23.8	3	13	112	0.00	29.913 
03:35	30.0	25.8	30.0	78	24.0	4	12	90	0.00	29.913 
03:40	30.0	24.7	30.0	78	24.0	5	16	90	0.00	29.913 
03:45	30.0	25.8	30.0	78	24.0	4	12	112	0.00	29.904 
03:50	30.0	24.7	30.0	78	24.0	5	13	90	0.00	29.904 
03:55	30.0	24.7	30.0	78	24.0	5	13	112	0.00	29.904 
04:00	30.1	30.1	30.1	78	24.1	3	9	90	0.00	29.878 
04:05	30.1	25.9	30.1	77	23.8	4	11	90	0.00	29.878 
04:10	30.3	30.3	30.3	77	24.0	3	11	112	0.00	29.878 
04:15	30.3	26.1	30.3	77	24.0	4	15	90	0.00	29.874 
04:20	30.3	30.3	30.3	77	24.0	3	12	90	0.00	29.874 
04:25	30.3	26.1	30.3	77	24.0	4	17	90	0.00	29.874 
04:30	30.3	25.1	30.3	77	24.0	5	15	90	0.00	29.889 
04:35	30.4	25.2	30.4	77	24.1	5	13	90	0.00	29.889 
04:40	30.3	26.1	30.3	77	24.0	4	12	90	0.00	29.889 
04:45	30.3	30.3	30.3	77	24.0	3	12	90	0.00	29.881 
04:50	30.3	30.3	30.3	77	24.0	3	11	112	0.00	29.881 
04:55	30.3	26.1	30.3	77	24.0	4	11	112	0.00	29.881 
05:00	30.3	26.1	30.3	77	24.0	4	12	90	0.00	29.867 
05:05	30.3	30.3	30.3	77	24.0	3	9	90	0.00	29.867 
05:10	30.4	26.2	30.4	77	24.1	4	13	90	0.00	29.867 
05:15	30.4	25.2	30.4	76	23.8	5	13	112	0.00	29.862 
05:20	30.6	26.5	30.6	76	24.0	4	14	90	0.00	29.862 
05:25	30.7	26.6	30.7	76	24.0	4	14	90	0.00	29.862 
05:30	30.7	25.5	30.7	76	24.0	5	14	90	0.00	29.858 
05:35	30.7	26.6	30.7	75	23.7	4	12	112	0.00	29.858 
05:40	30.9	26.8	30.9	75	23.9	4	12	112	0.00	29.858 
05:45	30.9	24.2	30.9	74	23.6	7	12	90	0.00	29.842 
05:50	31.0	25.9	31.0	74	23.7	5	14	112	0.00	29.842 
05:55	31.0	25.0	31.0	74	23.7	6	13	112	0.00	29.842 
06:00	31.0	24.3	31.0	74	23.7	7	15	112	0.00	29.838 
06:05	31.2	23.9	31.2	74	23.9	8	15	90	0.00	29.838 
06:10	31.0	25.0	31.0	74	23.7	6	15	90	0.00	29.838 
06:15	31.0	24.3	31.0	75	24.0	7	14	112	0.00	29.822 
06:20	31.0	24.3	31.0	75	24.0	7	15	90	0.00	29.822 
06:25	31.0	23.6	31.0	75	24.0	8	19	112	0.00	29.822 
06:30	30.9	24.9	30.9	75	23.9	6	17	112	0.00	29.813 
06:35	30.9	24.9	30.9	76	24.2	6	16	112	0.00	29.813 
06:40	30.9	24.9	30.9	76	24.2	6	13	90	0.00	29.813 
06:45	30.9	24.9	30.9	76	24.2	6	18	112	0.00	29.802 
06:50	30.9	24.9	30.9	76	24.2	6	14	90	0.00	29.802 
06:55	30.9	25.8	30.9	76	24.2	5	13	90	0.00	29.802 
07:00	30.9	24.9	30.9	76	24.2	6	15	90	0.00	29.805 
07:05	30.9	24.2	30.9	76	24.2	7	14	112	0.00	29.805 
07:10	30.9	24.9	30.9	76	24.2	6	14	90	0.00	29.805 
07:15	30.9	25.8	30.9	76	24.2	5	12	90	0.00	29.819 
07:20	30.9	23.5	30.9	77	24.6	8	17	112	0.00	29.819 
07:25	30.9	24.9	30.9	77	24.6	6	15	90	0.00	29.819 
07:30	30.9	25.8	30.9	77	24.6	5	12	90	0.00	29.808 
07:35	30.9	24.9	30.9	77	24.6	6	13	90	0.00	29.808 
07:40	30.9	25.8	30.9	77	24.6	5	16	90	0.00	29.808 
07:45	31.0	25.0	31.0	77	24.7	6	18	112	0.00	29.815 
07:50	31.0	25.0	31.0	77	24.7	6	14	90	0.00	29.815 
07:55	31.0	24.3	31.0	77	24.7	7	16	112	0.00	29.815 
08:00	31.2	24.5	31.2	77	24.8	7	15	112	0.00	29.816 
08:05	31.2	24.5	31.2	77	24.8	7	16	112	0.00	29.816 
08:10	31.2	26.1	31.2	77	24.8	5	14	112	0.00	29.816 
08:15	31.2	25.3	31.2	77	24.8	6	16	112	0.00	29.811 
08:20	31.3	27.3	31.3	77	24.9	4	14	112	0.00	29.811 
08:25	31.3	26.3	31.3	77	24.9	5	14	112	0.00	29.811 
08:30	31.3	25.4	31.3	77	24.9	6	14	112	0.00	29.802 
08:35	31.3	25.4	31.3	77	24.9	6	16	112	0.00	29.802 
08:40	31.5	26.5	31.5	77	25.1	5	13	112	0.00	29.802 
08:45	31.5	26.5	31.5	77	25.1	5	14	90	0.00	29.799 
08:50	31.5	25.6	31.5	77	25.1	6	15	90	0.00	29.799 
08:55	31.5	25.6	31.5	77	25.1	6	17	112	0.00	29.799 
09:00	31.6	27.6	31.6	77	25.2	4	14	90	0.00	29.786 
09:05	31.6	25.8	31.6	78	25.5	6	17	90	0.00	29.786 
09:10	31.6	25.8	31.6	80	26.2	6	13	90	0.00	29.786 
09:15	31.5	26.5	31.5	81	26.4	5	14	90	0.00	29.766 
09:20	31.5	24.2	31.5	82	26.7	8	15	112	0.00	29.766 
09:25	31.5	27.5	31.5	82	26.7	4	10	112	0.00	29.766 
09:30	31.5	27.5	31.5	83	26.9	4	15	90	0.00	29.756 
09:35	31.5	27.5	31.5	83	26.9	4	14	90	0.00	29.756 
09:40	31.5	26.5	31.5	84	27.2	5	13	112	0.00	29.756 
09:45	31.5	26.5	31.5	84	27.2	5	15	90	0.00	29.745 
09:50	31.5	24.9	31.5	84	27.2	7	20	112	0.00	29.745 
09:55	31.5	26.5	31.5	85	27.5	5	14	112	0.00	29.745 
10:00	31.5	26.5	31.5	86	27.8	5	11	90	0.00	29.731 
10:05	31.5	24.2	31.5	86	27.8	8	19	112	0.01	29.731 
10:10	31.5	24.9	31.5	86	27.8	7	18	90	0.00	29.731 
10:15	31.5	25.6	31.5	87	28.1	6	13	112	0.00	29.729 
10:20	31.5	25.6	31.5	87	28.1	6	14	112	0.00	29.729 
10:25	31.5	24.9	31.5	87	28.1	7	17	112	0.00	29.729 
10:30	31.5	26.5	31.5	88	28.4	5	15	90	0.00	29.725 
10:35	31.5	25.6	31.5	88	28.4	6	14	112	0.00	29.725 
10:40	31.5	26.5	31.5	88	28.4	5	11	112	0.00	29.725 
10:45	31.5	26.5	31.5	88	28.4	5	13	112	0.00	29.708 
10:50	31.6	31.6	31.6	89	28.7	0	0	---	0.00	29.708 
10:55	31.6	31.6	31.6	89	28.7	0	0	---	0.00	29.708 
11:00	31.6	31.6	31.6	89	28.7	0	0	---	0.00	29.678 
11:05	31.6	31.6	31.6	89	28.7	0	0	---	0.00	29.678 
11:10	31.8	31.8	31.8	89	28.9	0	0	---	0.00	29.678 
11:15	31.8	31.8	31.8	89	28.9	0	0	---	0.00	29.655 
11:20	31.9	31.9	31.9	89	29.0	0	0	---	0.00	29.655 
11:25	31.8	31.8	31.8	89	28.9	0	0	---	0.01	29.655 
11:30	31.8	31.8	31.8	89	28.9	0	0	---	0.00	29.654 
11:35	31.9	31.9	31.9	89	29.0	0	0	---	0.00	29.654 
11:40	31.9	31.9	31.9	89	29.0	0	0	---	0.00	29.654 
11:45	31.9	31.9	31.9	89	29.0	0	0	---	0.00	29.633 
11:50	31.9	31.9	31.9	90	29.3	0	0	---	0.00	29.633 
11:55	32.1	32.1	32.1	90	29.5	0	0	---	0.00	29.633 
12:00	32.1	32.1	32.1	90	29.5	0	0	---	0.00	29.612 
12:05	32.1	32.1	32.1	90	29.5	0	0	---	0.01	29.612 
12:10	32.1	32.1	32.1	91	29.8	0	0	---	0.00	29.612 
12:15	32.1	32.1	32.1	91	29.8	0	0	---	0.00	29.610 
12:20	32.1	32.1	32.1	91	29.8	0	0	---	0.00	29.610 
12:25	32.1	32.1	32.1	91	29.8	0	0	---	0.00	29.610 
12:30	32.2	32.2	32.2	92	30.1	0	0	---	0.00	29.599 
12:35	32.2	32.2	32.2	92	30.1	0	0	---	0.00	29.599 
12:40	32.4	32.4	32.4	92	30.3	0	0	---	0.00	29.599 
12:45	32.4	32.4	32.4	92	30.3	0	0	---	0.01	29.607 
12:50	32.4	32.4	32.4	92	30.3	0	0	---	0.00	29.607 
12:55	32.5	32.5	32.5	92	30.4	0	0	---	0.00	29.607 
13:00	32.5	32.5	32.5	93	30.7	0	0	---	0.00	29.596 
13:05	32.5	32.5	32.5	93	30.7	0	0	---	0.01	29.596 
13:10	32.5	32.5	32.5	93	30.7	0	0	---	0.00	29.596 
13:15	32.5	32.5	32.5	93	30.7	0	0	---	0.00	29.583 
13:20	32.5	32.5	32.5	93	30.7	0	0	---	0.00	29.583 
13:25	32.5	32.5	32.5	93	30.7	0	0	---	0.00	29.583 
13:30	32.5	32.5	32.5	93	30.7	0	0	---	0.00	29.579 
13:35	32.5	32.5	32.5	93	30.7	0	0	---	0.00	29.579 
13:40	32.5	32.5	32.5	93	30.7	0	0	---	0.01	29.579 
13:45	32.5	32.5	32.5	93	30.7	0	0	---	0.00	29.571 
13:50	32.5	32.5	32.5	93	30.7	0	0	---	0.00	29.571 
13:55	32.5	32.5	32.5	93	30.7	0	0	---	0.00	29.571 
14:00	32.7	32.7	32.7	94	31.2	0	0	---	0.01	29.561 
14:05	32.7	32.7	32.7	94	31.2	0	0	---	0.00	29.561 
14:10	32.7	32.7	32.7	94	31.2	0	0	---	0.00	29.561 
14:15	32.7	32.7	32.7	94	31.2	0	0	---	0.00	29.551 
14:20	32.7	32.7	32.7	94	31.2	0	0	---	0.00	29.551 
14:25	32.7	32.7	32.7	94	31.2	0	0	---	0.00	29.551 
14:30	32.7	32.7	32.7	94	31.2	0	0	---	0.01	29.536 
14:35	32.7	32.7	32.7	94	31.2	0	0	---	0.00	29.536 
14:40	32.7	32.7	32.7	94	31.2	0	0	---	0.00	29.536 
14:45	32.7	32.7	32.7	94	31.2	0	0	---	0.00	29.534 
14:50	32.7	32.7	32.7	94	31.2	0	0	---	0.01	29.534 
14:55	32.7	32.7	32.7	94	31.2	0	0	---	0.00	29.534 
15:00	32.7	32.7	32.7	94	31.2	0	0	---	0.00	29.521 
15:05	32.7	32.7	32.7	94	31.2	0	0	---	0.00	29.521 
15:10	32.7	32.7	32.7	94	31.2	0	0	---	0.00	29.521 
15:15	32.7	32.7	32.7	94	31.2	0	0	---	0.01	29.518 
15:20	32.7	32.7	32.7	94	31.2	0	0	---	0.00	29.518 
15:25	32.7	32.7	32.7	94	31.2	0	0	---	0.00	29.518 
15:30	32.7	32.7	32.7	94	31.2	0	0	---	0.01	29.520 
15:35	32.7	32.7	32.7	94	31.2	0	0	---	0.01	29.520 
15:40	32.7	32.7	32.7	94	31.2	0	0	---	0.05	29.520 
15:45	32.8	32.8	32.8	94	31.3	0	0	---	0.05	29.510 
15:50	32.8	32.8	32.8	94	31.3	0	0	---	0.06	29.510 
15:55	32.8	32.8	32.8	94	31.3	0	0	---	0.07	29.510 
16:00	32.8	32.8	32.8	94	31.3	0	0	---	0.07	29.506 
16:05	32.8	32.8	32.8	94	31.3	0	0	---	0.06	29.506 
16:10	32.8	32.8	32.8	94	31.3	0	0	---	0.06	29.506 
16:15	32.8	32.8	32.8	94	31.3	0	0	---	0.05	29.505 
16:20	32.8	32.8	32.8	94	31.3	0	0	---	0.01	29.505 
16:25	32.9	32.9	32.9	94	31.4	0	0	---	0.01	29.505 
16:30	32.9	32.9	32.9	94	31.4	0	0	---	0.00	29.500 
16:35	32.9	32.9	32.9	94	31.4	0	0	---	0.00	29.500 
16:40	32.9	32.9	32.9	94	31.4	0	0	---	0.01	29.500 
16:45	32.9	32.9	32.9	94	31.4	0	0	---	0.00	29.497 
16:50	32.9	32.9	32.9	94	31.4	2	13	112	0.01	29.497 
16:55	32.9	32.9	32.9	94	31.4	1	7	112	0.00	29.497 
17:00	32.9	32.9	32.9	94	31.4	1	6	112	0.00	29.499 
17:05	32.9	32.9	32.9	94	31.4	2	11	112	0.01	29.499 
17:10	32.9	32.9	32.9	94	31.4	2	9	112	0.01	29.499 
17:15	32.9	32.9	32.9	94	31.4	2	10	112	0.00	29.490 
17:20	32.9	32.9	32.9	94	31.4	2	10	112	0.01	29.490 
17:25	33.1	28.4	33.1	94	31.6	5	13	112	0.00	29.490 
17:30	33.1	33.1	33.1	94	31.6	2	7	112	0.00	29.491 
17:35	33.1	28.4	33.1	94	31.6	5	10	90	0.01	29.491 
17:40	33.1	29.3	33.1	94	31.6	4	13	90	0.00	29.491 
17:45	33.1	29.3	33.1	94	31.6	4	12	112	0.00	29.488 
17:50	33.2	29.5	33.2	94	31.7	4	12	112	0.00	29.488 
17:55	33.2	29.5	33.2	94	31.7	4	9	90	0.00	29.488 
18:00	33.2	33.2	33.2	94	31.7	3	7	90	0.00	29.483 
18:05	33.2	33.2	33.2	94	31.7	3	10	90	0.00	29.483 
18:10	33.2	33.2	33.2	94	31.7	3	6	90	0.00	29.483 
18:15	33.2	29.5	33.2	94	31.7	4	11	90	0.00	29.482 
18:20	33.4	33.4	33.4	94	31.9	3	9	90	0.01	29.482 
18:25	33.4	33.4	33.4	94	31.9	3	10	112	0.00	29.482 
18:30	33.4	33.4	33.4	94	31.9	3	9	90	0.00	29.484 
18:35	33.4	29.7	33.4	94	31.9	4	9	90	0.00	29.484 
18:40	33.4	29.7	33.4	94	31.9	4	10	90	0.01	29.484 
18:45	33.4	33.4	33.4	95	32.1	3	7	112	0.01	29.486 
18:50	33.4	33.4	33.4	95	32.1	3	9	90	0.00	29.486 
18:55	33.4	33.4	33.4	95	32.1	3	9	68	0.01	29.486 
19:00	33.5	33.5	33.5	95	32.2	2	7	90	0.01	29.483 
19:05	33.5	33.5	33.5	95	32.2	3	9	90	0.00	29.483 
19:10	33.5	29.8	33.5	95	32.2	4	10	90	0.01	29.483 
19:15	33.5	33.5	33.5	95	32.2	3	10	90	0.00	29.480 
19:20	33.5	33.5	33.5	95	32.2	3	10	112	0.01	29.480 
19:25	33.5	33.5	33.5	95	32.2	3	8	112	0.00	29.480 
19:30	33.5	33.5	33.5	95	32.2	3	9	90	0.00	29.476 
19:35	33.7	33.7	33.7	95	32.4	2	7	90	0.00	29.476 
19:40	33.7	33.7	33.7	95	32.4	3	10	112	0.01	29.476 
19:45	33.7	30.0	33.7	95	32.4	4	9	90	0.00	29.473 
19:50	33.7	29.1	33.7	95	32.4	5	12	112	0.00	29.473 
19:55	33.8	30.2	33.8	95	32.5	4	12	112	0.00	29.473 
20:00	33.7	33.7	33.7	95	32.4	2	6	90	0.01	29.470 
20:05	33.7	33.7	33.7	95	32.4	2	7	112	0.00	29.470 
20:10	33.7	33.7	33.7	95	32.4	1	7	90	0.00	29.470 
20:15	33.7	33.7	33.7	95	32.4	1	5	90	0.00	29.466 
20:20	33.8	33.8	33.8	95	32.5	2	7	90	0.00	29.466 
20:25	33.8	33.8	33.8	95	32.5	3	12	90	0.01	29.466 
20:30	33.8	33.8	33.8	95	32.5	2	7	90	0.00	29.465 
20:35	33.8	33.8	33.8	95	32.5	3	10	90	0.00	29.465 
20:40	33.8	33.8	33.8	95	32.5	3	8	90	0.00	29.465 
20:45	33.8	30.2	33.8	95	32.5	4	9	90	0.00	29.458 
20:50	34.0	34.0	34.0	95	32.7	2	6	90	0.00	29.458 
20:55	34.0	34.0	34.0	95	32.7	1	5	90	0.00	29.458 
21:00	34.0	34.0	34.0	95	32.7	2	6	90	0.00	29.454 
21:05	34.0	34.0	34.0	95	32.7	3	9	90	0.00	29.454 
21:10	34.0	34.0	34.0	95	32.7	1	7	90	0.00	29.454 
21:15	34.0	34.0	34.0	95	32.7	1	4	90	0.00	29.453 
21:20	34.1	34.1	34.1	95	32.8	1	4	90	0.00	29.453 
21:25	34.1	34.1	34.1	95	32.8	2	6	90	0.00	29.453 
21:30	34.1	34.1	34.1	95	32.8	2	5	112	0.00	29.453 
21:35	34.1	34.1	34.1	95	32.8	1	4	90	0.00	29.453 
21:40	34.1	34.1	34.1	95	32.8	1	6	90	0.00	29.453 
21:45	34.1	34.1	34.1	95	32.8	1	4	90	0.00	29.453 
21:50	34.1	34.1	34.1	95	32.8	2	5	45	0.00	29.453 
21:55	34.1	34.1	34.1	95	32.8	2	7	90	0.00	29.453 
22:00	34.1	34.1	34.1	95	32.8	3	6	90	0.00	29.453 
22:05	34.1	34.1	34.1	95	32.8	2	5	90	0.01	29.453 
22:10	34.0	34.0	34.0	95	32.7	2	6	112	0.00	29.453 
22:15	33.8	33.8	33.8	95	32.5	1	3	90	0.01	29.452 
22:20	33.8	33.8	33.8	95	32.5	1	4	90	0.00	29.452 
22:25	33.7	33.7	33.7	95	32.4	0	0	---	0.01	29.452 
22:30	33.7	33.7	33.7	95	32.4	0	2	90	0.00	29.448 
22:35	33.7	33.7	33.7	95	32.4	0	2	90	0.00	29.448 
22:40	33.7	33.7	33.7	95	32.4	0	4	90	0.00	29.448 
22:45	33.7	33.7	33.7	95	32.4	0	3	0	0.01	29.442 
22:50	33.7	33.7	33.7	95	32.4	0	3	90	0.00	29.442 
22:55	33.7	33.7	33.7	95	32.4	0	1	90	0.00	29.442 
23:00	33.7	33.7	33.7	95	32.4	1	3	90	0.01	29.444 
23:05	33.7	33.7	33.7	95	32.4	0	1	90	0.00	29.444 
23:10	33.7	33.7	33.7	95	32.4	0	3	90	0.00	29.444 
23:15	33.7	33.7	33.7	95	32.4	0	0	---	0.01	29.447 
23:20	33.7	33.7	33.7	95	32.4	0	1	90	0.00	29.447 
23:25	33.7	33.7	33.7	95	32.4	0	1	90	0.00	29.447 
23:30	33.7	33.7	33.7	95	32.4	0	0	---	0.00	29.448 
23:35	33.7	33.7	33.7	95	32.4	0	1	90	0.00	29.448 
23:40	33.5	33.5	33.5	95	32.2	0	0	---	0.01	29.448 
23:45	33.5	33.5	33.5	95	32.2	0	0	---	0.00	29.449 
23:50	33.5	33.5	33.5	95	32.2	0	0	---	0.00	29.449 
23:55	33.5	33.5	33.5	95	32.2	0	0	---	0.00	29.449 

CoCoRaHS
IN-AL-39
A2 Web Hosting
Creative Commons License
GoDaddy
search engine by freefind advanced

loaded 2018-11-16 10:35:08 • last modified 2010-11-18 10:43:29
Privacy PolicyDisclaimer
• wx.awcolley.com is powered by PmWiki v.2002016 •
• all content (unless otherwise noted) © 2018 A W Colley